Airfield :
LOGIN :

Register | Disclaimer

   EN    FR    IT 

 










Legend :    VFR   Marginal VFR   IFR   Intensive IFR   Very Intensive IFR
Visi :
Ceiling :
>= 8 km
>= 3000ft
5 to 8 km
1000 to 3000 ft
1500m to 5 km
500 to 1000 ft
800 to 1500m
200 to 500 ft
< 800m
< 200 ft
Symbols :   Thunderstorms  Fog  Heavy snow  Heavy precipitations  Wind > 20 kt
SIGMETs :     Misc.  Thunderstorms  Icing  Turbulence  Mountain Waves  Volcanic Ashes






- Airport Elevation : 374 ft
- IATA code : LIS


LPPT - Lisboa Portela

CURRENT METAR :
  • 191900Z 03004KT 340V080 CAVOK 15/07 Q1027

EXPIRED METARs :
  • 191830Z 02004KT CAVOK 16/07 Q1026
  • 191800Z 03005KT CAVOK 17/08 Q1026
  • 191730Z 04006KT 340V070 CAVOK 18/09 Q1027
  • 191700Z 05007KT 340V080 CAVOK 19/08 Q1027
  • 191630Z 04008KT 010V070 CAVOK 19/09 Q1027

TAF TAF LPPT
Valid from the 19 at 18:00 until the 21 at 00:00 UTC


191700Z 1918/2024 04008KT CAVOK
BECMG 1918/1920 35007KT
BECMG 1922/1924 03007KT
BECMG 2017/2020 36008KT



MET'MAP, your aeronautical weather chart ! - Copyright ORBIFLY December 2007 - Disclaimer

ORBIFLY MET'MAP TEAM :

Programming & Development : Alexandra Zaïnal
Concept & original design : Baudouin d'Aumeries
Assistance for programming : Marc-Olivier Méhu
Technical & hardware support : Manuel Goepfert

Contact : metmap@orbifly.com




SOURCES & CREDITS :

   NOAA